| time (UTC) | temp F | wind direction | speed MPH | gust MPH | rain 1hr in | rain 24hr in | rain mn in | humidity % | barometer mb |
| 20260901122532 | 62 | 234 | 8.0 | 16.0 | 0.00 | 0.44 | 0.00 | 71 | 1006.1 |
| 20260901122034 | 63 | 298 | 6.0 | 15.0 | 0.00 | 0.44 | 0.00 | 70 | 1006.1 |
| 20260901121553 | 64 | 225 | 8.0 | 15.0 | 0.00 | 0.44 | 0.00 | 68 | 1006.0 |
| 20260901121031 | 64 | 235 | 5.0 | 14.0 | 0.00 | 0.44 | 0.00 | 72 | 1006.0 |
| 20260901120532 | 64 | 257 | 7.0 | 14.0 | 0.00 | 0.44 | 0.00 | 73 | 1005.8 |
| 20260901120056 | 62 | 255 | 5.0 | 14.0 | 0.00 | 0.44 | 0.00 | 79 | 1005.9 |
| 20260901115530 | 62 | 244 | 7.0 | 15.0 | 0.00 | 0.54 | 0.00 | 74 | 1005.9 |
| 20260901115030 | 63 | 267 | 4.0 | 15.0 | 0.00 | 0.54 | 0.00 | 75 | 1005.9 |
| 20260901114552 | 63 | 211 | 8.0 | 16.0 | 0.00 | 0.54 | 0.00 | 72 | 1005.8 |
| 20260901114032 | 63 | 267 | 9.0 | 16.0 | 0.00 | 0.54 | 0.00 | 73 | 1005.9 |
| 20260901113533 | 62 | 268 | 6.0 | 14.0 | 0.00 | 0.54 | 0.00 | 79 | 1005.8 |
| 20260901113050 | 61 | 210 | 6.0 | 14.0 | 0.00 | 0.54 | 0.00 | 78 | 1005.8 |
| 20260901112531 | 62 | 285 | 7.0 | 14.0 | 0.00 | 0.54 | 0.00 | 77 | 1005.9 |
| 20260901112031 | 63 | 267 | 5.0 | 12.0 | 0.00 | 0.54 | 0.00 | 80 | 1005.7 |
| 20260901111548 | 63 | 267 | 4.0 | 14.0 | 0.00 | 0.54 | 0.00 | 77 | 1005.8 |
| 20260901111033 | 63 | 253 | 5.0 | 14.0 | 0.00 | 0.54 | 0.00 | 76 | 1005.7 |
| 20260901110530 | 63 | 234 | 8.0 | 16.0 | 0.00 | 0.54 | 0.00 | 74 | 1005.7 |
| 20260901110048 | 63 | 230 | 8.0 | 16.0 | 0.00 | 0.54 | 0.00 | 76 | 1005.6 |
| 20260901105530 | 63 | 237 | 8.0 | 13.0 | 0.00 | 0.54 | 0.00 | 77 | 1005.5 |
| 20260901105033 | 62 | 283 | 5.0 | 12.0 | 0.00 | 0.54 | 0.00 | 81 | 1005.5 |
| 20260901104558 | 62 | 262 | 6.0 | 12.0 | 0.00 | 0.54 | 0.00 | 82 | 1005.4 |
| 20260901104031 | 62 | 245 | 4.0 | 12.0 | 0.00 | 0.54 | 0.00 | 82 | 1005.4 |
| 20260901103533 | 62 | 241 | 5.0 | 11.0 | 0.00 | 0.54 | 0.00 | 83 | 1005.4 |
| 20260901103051 | 62 | 266 | 4.0 | 13.0 | 0.00 | 0.54 | 0.00 | 81 | 1005.4 |
| 20260901102530 | 62 | 207 | 7.0 | 13.0 | 0.00 | 0.54 | 0.00 | 81 | 1005.4 |
| 20260901102031 | 61 | 234 | 5.0 | 12.0 | 0.00 | 0.54 | 0.00 | 82 | 1005.3 |
| 20260901101549 | 61 | 209 | 7.0 | 13.0 | 0.00 | 0.54 | 0.00 | 81 | 1005.3 |
| 20260901101030 | 62 | 230 | 5.0 | 13.0 | 0.00 | 0.54 | 0.00 | 82 | 1005.4 |
| 20260901100533 | 62 | 275 | 6.0 | 13.0 | 0.00 | 0.54 | 0.00 | 81 | 1005.3 |
| 20260901100055 | 61 | 248 | 5.0 | 13.0 | 0.00 | 0.54 | 0.00 | 84 | 1005.2 |
| 20260901095530 | 61 | 238 | 7.0 | 13.0 | 0.00 | 0.54 | 0.00 | 82 | 1005.3 |
| 20260901095030 | 62 | 231 | 6.0 | 14.0 | 0.00 | 0.54 | 0.00 | 83 | 1005.2 |
| 20260901094554 | 62 | 261 | 6.0 | 14.0 | 0.00 | 0.54 | 0.00 | 84 | 1005.3 |
| 20260901094032 | 62 | 314 | 7.0 | 14.0 | 0.00 | 0.54 | 0.00 | 84 | 1005.2 |
| 20260901093531 | 62 | 246 | 5.0 | 11.0 | 0.00 | 0.54 | 0.00 | 85 | 1005.2 |
| 20260901093057 | 62 | 267 | 5.0 | 12.0 | 0.00 | 0.54 | 0.00 | 85 | 1005.1 |
| 20260901092530 | 62 | 244 | 4.0 | 12.0 | 0.00 | 0.54 | 0.00 | 86 | 1005.1 |
| 20260901092030 | 62 | 284 | 5.0 | 12.0 | 0.00 | 0.54 | 0.00 | 86 | 1005.1 |
| 20260901091556 | 61 | 299 | 5.0 | 12.0 | 0.00 | 0.54 | 0.00 | 86 | 1005.0 |
| 20260901091035 | 62 | 274 | 5.0 | 16.0 | 0.00 | 0.54 | 0.00 | 87 | 1005.1 |
| 20260901090529 | 61 | 236 | 7.0 | 16.0 | 0.00 | 0.54 | 0.00 | 87 | 1004.9 |
| 20260901090053 | 61 | 228 | 7.0 | 14.0 | 0.00 | 0.54 | 0.00 | 87 | 1005.0 |
| 20260901085530 | 62 | 272 | 5.0 | 14.0 | 0.00 | 0.54 | 0.00 | 88 | 1005.0 |
| 20260901085033 | 62 | 272 | 5.0 | 11.0 | 0.00 | 0.54 | 0.00 | 88 | 1004.9 |
| 20260901084551 | 62 | 249 | 7.0 | 11.0 | 0.00 | 0.54 | 0.00 | 89 | 1004.9 |
| 20260901084030 | 61 | 230 | 4.0 | 11.0 | 0.00 | 0.54 | 0.00 | 90 | 1004.9 |
| 20260901083531 | 61 | 282 | 5.0 | 11.0 | 0.00 | 0.54 | 0.00 | 90 | 1004.9 |
| 20260901083048 | 61 | 228 | 4.0 | 12.0 | 0.00 | 0.54 | 0.00 | 90 | 1004.8 |
| 20260901082530 | 62 | 223 | 5.0 | 14.0 | 0.00 | 0.54 | 0.00 | 88 | 1004.8 |
| 20260901082034 | 62 | 207 | 5.0 | 14.0 | 0.00 | 0.54 | 0.00 | 88 | 1004.7 |
| 20260901081544 | 62 | 238 | 8.0 | 14.0 | 0.00 | 0.54 | 0.00 | 87 | 1004.7 |
| 20260901081030 | 62 | 222 | 6.0 | 14.0 | 0.00 | 0.54 | 0.00 | 88 | 1004.8 |
| 20260901080530 | 62 | 210 | 6.0 | 13.0 | 0.00 | 0.54 | 0.00 | 87 | 1004.8 |
| 20260901080057 | 62 | 226 | 5.0 | 11.0 | 0.00 | 0.54 | 0.00 | 87 | 1004.8 |
| 20260901075533 | 62 | 246 | 5.0 | 10.0 | 0.00 | 0.55 | 0.00 | 87 | 1004.7 |
| 20260901075031 | 63 | 172 | 4.0 | 10.0 | 0.00 | 0.55 | 0.00 | 87 | 1004.8 |
| 20260901074551 | 63 | 228 | 4.0 | 9.0 | 0.00 | 0.55 | 0.00 | 89 | 1004.8 |
| 20260901074030 | 62 | 221 | 3.0 | 9.0 | 0.00 | 0.55 | 0.00 | 90 | 1004.7 |
| 20260901073530 | 61 | 180 | 3.0 | 9.0 | 0.00 | 0.55 | 0.00 | 91 | 1004.9 |
| 20260901073049 | 61 | 184 | 4.0 | 8.0 | 0.00 | 0.55 | 0.00 | 92 | 1004.8 |
| 20260901072531 | 60 | 183 | 3.0 | 9.0 | 0.00 | 0.55 | 0.00 | 92 | 1004.8 |
| 20260901072032 | 60 | 230 | 3.0 | 9.0 | 0.00 | 0.55 | 0.00 | 92 | 1004.8 |
| 20260901071544 | 60 | 219 | 3.0 | 11.0 | 0.00 | 0.55 | 0.00 | 93 | 1004.9 |
| 20260901071029 | 60 | 187 | 3.0 | 11.0 | 0.00 | 0.55 | 0.00 | 93 | 1004.9 |
| 20260901070529 | 59 | 191 | 3.0 | 10.0 | 0.00 | 0.55 | 0.00 | 93 | 1004.8 |
| 20260901070054 | 59 | 209 | 3.0 | 11.0 | 0.00 | 0.55 | 0.00 | 93 | 1004.8 |
| 20260901065534 | 59 | 201 | 4.0 | 11.0 | 0.00 | 0.55 | 0.00 | 93 | 1004.8 |
| 20260901065029 | 59 | 190 | 4.0 | 10.0 | 0.00 | 0.55 | 0.00 | 93 | 1004.8 |
| 20260901064606 | 59 | 178 | 2.0 | 10.0 | 0.00 | 0.55 | 0.00 | 93 | 1004.8 |
| 20260901064031 | 59 | 185 | 1.0 | 7.0 | 0.00 | 0.55 | 0.00 | 93 | 1004.7 |
| 20260901063530 | 59 | 162 | 3.0 | 8.0 | 0.00 | 0.55 | 0.00 | 93 | 1004.8 |
| 20260901063109 | 59 | 203 | 4.0 | 9.0 | 0.00 | 0.55 | 0.00 | 93 | 1004.7 |
| 20260901062535 | 59 | 205 | 3.0 | 10.0 | 0.00 | 0.55 | 0.00 | 93 | 1004.7 |
| 20260901062032 | 59 | 234 | 4.0 | 11.0 | 0.00 | 0.55 | 0.00 | 93 | 1004.6 |
| 20260901061554 | 59 | 179 | 4.0 | 11.0 | 0.00 | 0.55 | 0.00 | 93 | 1004.6 |
| 20260901061030 | 59 | 213 | 4.0 | 11.0 | 0.00 | 0.55 | 0.00 | 93 | 1004.6 |
| 20260901060533 | 59 | 199 | 5.0 | 11.0 | 0.00 | 0.55 | 0.00 | 93 | 1004.6 |
| 20260901060047 | 59 | 230 | 3.0 | 10.0 | 0.00 | 0.55 | 0.00 | 93 | 1004.6 |
| 20260901055531 | 59 | 215 | 4.0 | 10.0 | 0.00 | 0.56 | 0.00 | 93 | 1004.6 |
| 20260901055030 | 59 | 187 | 4.0 | 11.0 | 0.00 | 0.56 | 0.00 | 93 | 1004.7 |
| 20260901054553 | 59 | 218 | 4.0 | 14.0 | 0.00 | 0.56 | 0.00 | 93 | 1004.6 |
| 20260901054030 | 59 | 201 | 4.0 | 14.0 | 0.00 | 0.56 | 0.00 | 93 | 1004.7 |
| 20260901053530 | 59 | 229 | 7.0 | 12.0 | 0.00 | 0.56 | 0.00 | 93 | 1004.6 |
| 20260901053042 | 59 | 229 | 6.0 | 18.0 | 0.00 | 0.56 | 0.00 | 93 | 1004.6 |
| 20260901052531 | 59 | 203 | 6.0 | 18.0 | 0.00 | 0.56 | 0.00 | 93 | 1004.6 |
| 20260901052030 | 59 | 214 | 7.0 | 12.0 | 0.00 | 0.56 | 0.00 | 93 | 1004.5 |
| 20260901051554 | 59 | 189 | 5.0 | 11.0 | 0.00 | 0.56 | 0.00 | 93 | 1004.5 |
| 20260901051030 | 59 | 226 | 6.0 | 11.0 | 0.00 | 0.56 | 0.00 | 93 | 1004.5 |
| 20260901050530 | 59 | 214 | 4.0 | 11.0 | 0.00 | 0.56 | 0.00 | 93 | 1004.5 |
| 20260901050048 | 59 | 230 | 5.0 | 15.0 | 0.00 | 0.56 | 0.00 | 93 | 1004.5 |
| 20260901045530 | 59 | 210 | 7.0 | 15.0 | 0.00 | 0.57 | 0.00 | 93 | 1004.5 |
| 20260901045033 | 59 | 240 | 6.0 | 11.0 | 0.00 | 0.57 | 0.00 | 93 | 1004.5 |
| 20260901044544 | 59 | 203 | 4.0 | 10.0 | 0.00 | 0.57 | 0.00 | 93 | 1004.5 |
| 20260901044036 | 59 | 234 | 4.0 | 14.0 | 0.00 | 0.57 | 0.00 | 93 | 1004.4 |
| 20260901043530 | 59 | 232 | 5.0 | 14.0 | 0.00 | 0.57 | 0.00 | 93 | 1004.5 |
| 20260901043053 | 59 | 194 | 6.0 | 12.0 | 0.00 | 0.57 | 0.00 | 93 | 1004.5 |
| 20260901042530 | 59 | 218 | 4.0 | 11.0 | 0.00 | 0.57 | 0.00 | 94 | 1004.5 |
| 20260901042032 | 59 | 225 | 5.0 | 11.0 | 0.00 | 0.57 | 0.00 | 94 | 1004.5 |
| 20260901041550 | 59 | 241 | 5.0 | 11.0 | 0.00 | 0.57 | 0.00 | 94 | 1004.5 |
| 20260901041032 | 58 | 185 | 2.0 | 7.0 | 0.00 | 0.57 | 0.00 | 94 | 1004.5 |
| 20260901040530 | 58 | 191 | 2.0 | 10.0 | 0.00 | 0.57 | 0.00 | 94 | 1004.4 |
| 20260901040050 | 58 | 205 | 5.0 | 10.0 | 0.00 | 0.57 | 0.00 | 94 | 1004.4 |
| 20260901035532 | 58 | 128 | 3.0 | 8.0 | 0.00 | 0.57 | 0.00 | 94 | 1004.4 |
| 20260901035032 | 58 | 201 | 2.0 | 9.0 | 0.00 | 0.57 | 0.00 | 94 | 1004.5 |
| 20260901034549 | 58 | 214 | 2.0 | 9.0 | 0.00 | 0.57 | 0.00 | 94 | 1004.5 |
| 20260901034029 | 58 | 170 | 3.0 | 9.0 | 0.00 | 0.57 | 0.00 | 94 | 1004.5 |
| 20260901033529 | 58 | 192 | 2.0 | 7.0 | 0.00 | 0.57 | 0.00 | 94 | 1004.5 |
| 20260901033045 | 58 | 197 | 2.0 | 7.0 | 0.00 | 0.57 | 0.00 | 94 | 1004.6 |
| 20260901032531 | 58 | 172 | 2.0 | 6.0 | 0.00 | 0.57 | 0.00 | 94 | 1004.6 |
| 20260901032031 | 58 | 231 | 1.0 | 7.0 | 0.00 | 0.57 | 0.00 | 94 | 1004.6 |
| 20260901031551 | 58 | 184 | 2.0 | 8.0 | 0.00 | 0.57 | 0.00 | 94 | 1004.6 |
| 20260901031031 | 58 | 214 | 3.0 | 9.0 | 0.00 | 0.57 | 0.00 | 94 | 1004.5 |
| 20260901030530 | 58 | 199 | 3.0 | 9.0 | 0.00 | 0.57 | 0.00 | 94 | 1004.6 |
| 20260901030047 | 58 | 186 | 3.0 | 8.0 | 0.00 | 0.57 | 0.00 | 94 | 1004.7 |
| 20260901025534 | 58 | 208 | 2.0 | 7.0 | 0.00 | 0.58 | 0.00 | 94 | 1004.7 |
| 20260901025032 | 58 | 186 | 3.0 | 7.0 | 0.00 | 0.58 | 0.00 | 94 | 1004.6 |
| 20260901024544 | 58 | 224 | 3.0 | 6.0 | 0.00 | 0.58 | 0.00 | 94 | 1004.6 |
| 20260901024031 | 58 | 218 | 2.0 | 6.0 | 0.00 | 0.58 | 0.00 | 94 | 1004.6 |
| 20260901023530 | 58 | 155 | 2.0 | 5.0 | 0.00 | 0.58 | 0.00 | 94 | 1004.6 |
| 20260901023055 | 58 | 193 | 1.0 | 8.0 | 0.00 | 0.58 | 0.00 | 94 | 1004.6 |
| 20260901022530 | 58 | 193 | 2.0 | 9.0 | 0.00 | 0.58 | 0.00 | 94 | 1004.5 |
| 20260901022030 | 58 | 205 | 2.0 | 9.0 | 0.00 | 0.58 | 0.00 | 94 | 1004.6 |
| 20260901021556 | 58 | 187 | 1.0 | 5.0 | 0.00 | 0.58 | 0.00 | 94 | 1004.7 |
| 20260901021031 | 58 | 0 | 0.0 | 3.0 | 0.00 | 0.58 | 0.00 | 94 | 1004.6 |
| 20260901020531 | 58 | 0 | 0.0 | 4.0 | 0.00 | 0.58 | 0.00 | 94 | 1004.6 |
| 20260901020052 | 58 | 0 | 0.0 | 4.0 | 0.00 | 0.58 | 0.00 | 94 | 1004.6 |
| 20260901015532 | 58 | 0 | 0.0 | 3.0 | 0.00 | 0.59 | 0.00 | 94 | 1004.6 |
| 20260901015035 | 57 | 0 | 0.0 | 4.0 | 0.00 | 0.59 | 0.00 | 94 | 1004.6 |
| 20260901014549 | 58 | 0 | 0.0 | 5.0 | 0.00 | 0.59 | 0.00 | 94 | 1004.6 |
| 20260901014030 | 57 | 174 | 1.0 | 5.0 | 0.00 | 0.59 | 0.00 | 94 | 1004.6 |
| 20260901013530 | 57 | 152 | 1.0 | 4.0 | 0.00 | 0.59 | 0.00 | 94 | 1004.7 |
| 20260901013102 | 57 | 164 | 1.0 | 3.0 | 0.00 | 0.59 | 0.00 | 94 | 1004.6 |
| 20260901012530 | 57 | 0 | 1.0 | 3.0 | 0.00 | 0.59 | 0.00 | 94 | 1004.6 |
| 20260901012033 | 57 | 184 | 0.0 | 3.0 | 0.00 | 0.59 | 0.00 | 94 | 1004.7 |
| 20260901011551 | 57 | 184 | 1.0 | 5.0 | 0.00 | 0.59 | 0.00 | 94 | 1004.7 |
| 20260901011033 | 57 | 184 | 0.0 | 6.0 | 0.00 | 0.59 | 0.00 | 94 | 1004.8 |
| 20260901010531 | 57 | 178 | 1.0 | 7.0 | 0.00 | 0.59 | 0.00 | 94 | 1004.8 |
| 20260901010054 | 57 | 198 | 1.0 | 7.0 | 0.00 | 0.59 | 0.00 | 94 | 1004.7 |
| 20260901005530 | 57 | 220 | 0.0 | 5.0 | 0.00 | 0.59 | 0.00 | 94 | 1004.8 |
| 20260901005033 | 57 | 208 | 2.0 | 5.0 | 0.00 | 0.59 | 0.00 | 94 | 1004.9 |
| 20260901004600 | 57 | 185 | 2.0 | 7.0 | 0.00 | 0.59 | 0.00 | 94 | 1004.9 |
| 20260901004029 | 57 | 207 | 1.0 | 7.0 | 0.00 | 0.59 | 0.00 | 94 | 1004.9 |
| 20260901003529 | 57 | 168 | 2.0 | 7.0 | 0.00 | 0.59 | 0.00 | 94 | 1004.9 |
| 20260901003100 | 57 | 201 | 1.0 | 6.0 | 0.00 | 0.59 | 0.00 | 94 | 1004.9 |
| 20260901002533 | 57 | 216 | 1.0 | 5.0 | 0.00 | 0.59 | 0.00 | 94 | 1005.0 |
| 20260901002033 | 57 | 183 | 1.0 | 4.0 | 0.00 | 0.59 | 0.00 | 94 | 1005.0 |
| 20260901001549 | 57 | 180 | 1.0 | 4.0 | 0.00 | 0.59 | 0.00 | 94 | 1005.0 |
| 20260901001030 | 57 | 180 | 0.0 | 2.0 | 0.00 | 0.59 | 0.00 | 94 | 1005.0 |
| 20260901000534 | 57 | 180 | 0.0 | 2.0 | 0.00 | 0.59 | 0.00 | 94 | 1005.0 |
| 20260901000048 | 57 | 0 | 0.0 | 2.0 | 0.00 | 0.59 | 0.00 | 94 | 1005.0 |
| 20260831235534 | 57 | 0 | 0.0 | 2.0 | 0.00 | 0.59 | 0.00 | 94 | 1005.1 |
| 20260831235035 | 57 | 180 | 0.0 | 2.0 | 0.00 | 0.59 | 0.00 | 94 | 1005.1 |
| 20260831234549 | 57 | 0 | 0.0 | 4.0 | 0.00 | 0.59 | 0.00 | 93 | 1005.1 |
| 20260831234033 | 57 | 0 | 0.0 | 5.0 | 0.00 | 0.59 | 0.00 | 93 | 1005.1 |
| 20260831233532 | 57 | 180 | 0.0 | 5.0 | 0.00 | 0.59 | 0.00 | 93 | 1005.1 |
| 20260831233048 | 57 | 191 | 2.0 | 5.0 | 0.00 | 0.59 | 0.00 | 93 | 1005.2 |
| 20260831232530 | 57 | 220 | 2.0 | 5.0 | 0.00 | 0.59 | 0.00 | 93 | 1005.2 |
| 20260831232031 | 57 | 215 | 2.0 | 6.0 | 0.00 | 0.59 | 0.00 | 93 | 1005.2 |
| 20260831231548 | 57 | 223 | 3.0 | 6.0 | 0.00 | 0.59 | 0.00 | 93 | 1005.2 |
| 20260831231034 | 57 | 224 | 3.0 | 8.0 | 0.00 | 0.59 | 0.00 | 93 | 1005.3 |
| 20260831230530 | 57 | 242 | 3.0 | 8.0 | 0.00 | 0.59 | 0.00 | 93 | 1005.3 |
| 20260831230051 | 57 | 307 | 3.0 | 7.0 | 0.00 | 0.59 | 0.00 | 93 | 1005.2 |
| 20260831225530 | 57 | 234 | 1.0 | 4.0 | 0.00 | 0.59 | 0.00 | 93 | 1005.3 |
| 20260831225035 | 57 | 224 | 2.0 | 8.0 | 0.00 | 0.59 | 0.00 | 93 | 1005.3 |
| 20260831224550 | 57 | 227 | 3.0 | 8.0 | 0.00 | 0.59 | 0.00 | 93 | 1005.2 |
| 20260831224033 | 57 | 238 | 0.0 | 4.0 | 0.00 | 0.59 | 0.00 | 93 | 1005.2 |
| 20260831223530 | 57 | 0 | 1.0 | 3.0 | 0.00 | 0.59 | 0.00 | 93 | 1005.2 |
| 20260831223048 | 57 | 238 | 1.0 | 3.0 | 0.00 | 0.59 | 0.00 | 92 | 1005.2 |
| 20260831222533 | 57 | 238 | 0.0 | 3.0 | 0.00 | 0.59 | 0.00 | 92 | 1005.1 |
| 20260831222033 | 57 | 238 | 0.0 | 2.0 | 0.00 | 0.59 | 0.00 | 92 | 1005.2 |
| 20260831221545 | 57 | 238 | 0.0 | 4.0 | 0.00 | 0.59 | 0.00 | 92 | 1005.2 |
| 20260831221030 | 57 | 238 | 1.0 | 5.0 | 0.00 | 0.59 | 0.00 | 92 | 1005.2 |
| 20260831220530 | 57 | 299 | 2.0 | 10.0 | 0.00 | 0.59 | 0.00 | 92 | 1005.3 |
| 20260831220043 | 58 | 234 | 4.0 | 10.0 | 0.00 | 0.59 | 0.00 | 92 | 1005.2 |
| 20260831215535 | 58 | 244 | 5.0 | 10.0 | 0.00 | 0.59 | 0.00 | 92 | 1005.3 |
| 20260831215034 | 58 | 276 | 1.0 | 6.0 | 0.00 | 0.59 | 0.00 | 92 | 1005.3 |
| 20260831214552 | 58 | 226 | 1.0 | 7.0 | 0.00 | 0.59 | 0.00 | 92 | 1005.3 |
| 20260831214033 | 58 | 214 | 1.0 | 9.0 | 0.00 | 0.59 | 0.00 | 92 | 1005.2 |
| 20260831213533 | 58 | 241 | 2.0 | 9.0 | 0.00 | 0.59 | 0.00 | 92 | 1005.2 |
| 20260831213049 | 58 | 294 | 3.0 | 11.0 | 0.00 | 0.59 | 0.00 | 92 | 1005.2 |
| 20260831212530 | 58 | 272 | 5.0 | 11.0 | 0.00 | 0.59 | 0.00 | 92 | 1005.1 |
| 20260831212036 | 58 | 238 | 5.0 | 11.0 | 0.00 | 0.59 | 0.00 | 93 | 1005.1 |
| 20260831211548 | 58 | 243 | 3.0 | 9.0 | 0.00 | 0.59 | 0.00 | 93 | 1005.1 |
| 20260831211031 | 58 | 215 | 4.0 | 12.0 | 0.00 | 0.59 | 0.00 | 93 | 1005.0 |
| 20260831210532 | 58 | 243 | 6.0 | 12.0 | 0.00 | 0.59 | 0.00 | 93 | 1004.9 |
| 20260831210052 | 58 | 245 | 4.0 | 9.0 | 0.00 | 0.59 | 0.00 | 93 | 1005.0 |
| 20260831205529 | 58 | 234 | 3.0 | 9.0 | 0.00 | 0.59 | 0.59 | 94 | 1005.0 |
| 20260831205030 | 58 | 251 | 3.0 | 8.0 | 0.00 | 0.59 | 0.59 | 94 | 1005.0 |
| 20260831204551 | 58 | 245 | 2.0 | 8.0 | 0.00 | 0.59 | 0.59 | 94 | 1005.0 |
| 20260831204030 | 58 | 229 | 3.0 | 9.0 | 0.00 | 0.59 | 0.59 | 94 | 1005.0 |
| 20260831203532 | 58 | 247 | 4.0 | 10.0 | 0.00 | 0.59 | 0.59 | 94 | 1005.0 |
| 20260831203054 | 58 | 236 | 3.0 | 11.0 | 0.00 | 0.59 | 0.59 | 94 | 1004.9 |
| 20260831202531 | 58 | 229 | 3.0 | 11.0 | 0.00 | 0.59 | 0.59 | 94 | 1004.8 |
| 20260831202030 | 58 | 214 | 4.0 | 10.0 | 0.00 | 0.59 | 0.59 | 93 | 1004.9 |
| 20260831201554 | 59 | 234 | 5.0 | 10.0 | 0.00 | 0.59 | 0.59 | 93 | 1004.9 |
| 20260831201033 | 59 | 217 | 5.0 | 10.0 | 0.00 | 0.59 | 0.59 | 93 | 1004.8 |
| 20260831200530 | 59 | 234 | 5.0 | 10.0 | 0.00 | 0.59 | 0.59 | 93 | 1004.9 |
| 20260831200053 | 59 | 245 | 4.0 | 9.0 | 0.00 | 0.59 | 0.59 | 93 | 1004.8 |
| 20260831195534 | 59 | 228 | 5.0 | 9.0 | 0.00 | 0.59 | 0.59 | 93 | 1004.7 |
| 20260831195033 | 59 | 257 | 5.0 | 9.0 | 0.00 | 0.59 | 0.59 | 93 | 1004.7 |
| 20260831194634 | 59 | 236 | 3.0 | 10.0 | 0.00 | 0.59 | 0.59 | 93 | 1004.8 |
| 20260831194034 | 60 | 247 | 4.0 | 10.0 | 0.00 | 0.59 | 0.59 | 92 | 1004.7 |
| 20260831193532 | 60 | 242 | 4.0 | 9.0 | 0.00 | 0.59 | 0.59 | 92 | 1004.6 |
| 20260831193049 | 60 | 247 | 3.0 | 8.0 | 0.00 | 0.59 | 0.59 | 92 | 1004.7 |
| 20260831192531 | 60 | 223 | 3.0 | 9.0 | 0.00 | 0.59 | 0.59 | 93 | 1004.6 |
| 20260831192032 | 60 | 243 | 5.0 | 9.0 | 0.00 | 0.59 | 0.59 | 93 | 1004.5 |
| 20260831191543 | 60 | 255 | 4.0 | 9.0 | 0.00 | 0.59 | 0.59 | 93 | 1004.6 |
| 20260831191036 | 60 | 224 | 4.0 | 8.0 | 0.00 | 0.59 | 0.59 | 93 | 1004.5 |
| 20260831190530 | 60 | 216 | 4.0 | 8.0 | 0.00 | 0.59 | 0.59 | 93 | 1004.5 |
| 20260831190047 | 60 | 219 | 3.0 | 8.0 | 0.00 | 0.59 | 0.59 | 93 | 1004.4 |
| 20260831185535 | 60 | 230 | 3.0 | 8.0 | 0.00 | 0.59 | 0.59 | 93 | 1004.4 |
| 20260831185029 | 60 | 192 | 3.0 | 7.0 | 0.00 | 0.59 | 0.59 | 93 | 1004.4 |
| 20260831184558 | 60 | 222 | 2.0 | 5.0 | 0.00 | 0.59 | 0.59 | 93 | 1004.4 |
| 20260831184032 | 60 | 259 | 2.0 | 5.0 | 0.00 | 0.59 | 0.59 | 93 | 1004.3 |
| 20260831183529 | 60 | 226 | 2.0 | 7.0 | 0.00 | 0.59 | 0.59 | 93 | 1004.4 |
| 20260831183048 | 60 | 237 | 3.0 | 8.0 | 0.00 | 0.59 | 0.59 | 93 | 1004.3 |
| 20260831182533 | 60 | 236 | 3.0 | 8.0 | 0.00 | 0.59 | 0.59 | 93 | 1004.4 |
| 20260831182033 | 60 | 227 | 3.0 | 7.0 | 0.00 | 0.59 | 0.59 | 93 | 1004.3 |
| 20260831181550 | 61 | 211 | 3.0 | 7.0 | 0.00 | 0.59 | 0.59 | 93 | 1004.3 |
| 20260831181032 | 60 | 240 | 3.0 | 7.0 | 0.00 | 0.59 | 0.59 | 93 | 1004.2 |
| 20260831180530 | 61 | 255 | 3.0 | 8.0 | 0.00 | 0.59 | 0.59 | 93 | 1004.2 |
| 20260831180054 | 61 | 236 | 3.0 | 8.0 | 0.00 | 0.59 | 0.59 | 93 | 1004.2 |
| 20260831175534 | 61 | 249 | 2.0 | 7.0 | 0.00 | 0.59 | 0.59 | 93 | 1004.2 |
| 20260831175033 | 61 | 232 | 2.0 | 7.0 | 0.00 | 0.59 | 0.59 | 93 | 1004.1 |
| 20260831174551 | 61 | 243 | 3.0 | 7.0 | 0.00 | 0.59 | 0.59 | 92 | 1004.1 |
| 20260831174033 | 61 | 220 | 3.0 | 6.0 | 0.00 | 0.59 | 0.59 | 92 | 1004.1 |
| 20260831173530 | 61 | 236 | 3.0 | 7.0 | 0.00 | 0.59 | 0.59 | 92 | 1004.0 |
| 20260831173051 | 61 | 216 | 3.0 | 7.0 | 0.00 | 0.59 | 0.59 | 92 | 1003.9 |
| 20260831172533 | 62 | 224 | 3.0 | 7.0 | 0.00 | 0.59 | 0.59 | 91 | 1003.9 |
| 20260831172034 | 62 | 242 | 3.0 | 7.0 | 0.00 | 0.59 | 0.59 | 91 | 1003.8 |
| 20260831171558 | 62 | 257 | 2.0 | 7.0 | 0.00 | 0.59 | 0.59 | 91 | 1003.9 |
| 20260831171033 | 63 | 218 | 3.0 | 8.0 | 0.00 | 0.59 | 0.59 | 91 | 1003.9 |
| 20260831170533 | 63 | 245 | 3.0 | 8.0 | 0.00 | 0.59 | 0.59 | 91 | 1003.8 |
| 20260831170114 | 63 | 220 | 4.0 | 8.0 | 0.00 | 0.59 | 0.59 | 91 | 1003.8 |
| 20260831165531 | 63 | 271 | 4.0 | 9.0 | 0.00 | 0.59 | 0.59 | 91 | 1003.8 |
| 20260831165033 | 63 | 261 | 4.0 | 9.0 | 0.00 | 0.59 | 0.59 | 91 | 1003.7 |
| 20260831164548 | 63 | 214 | 4.0 | 9.0 | 0.00 | 0.59 | 0.59 | 92 | 1003.7 |
| 20260831164031 | 63 | 201 | 1.0 | 5.0 | 0.00 | 0.59 | 0.59 | 92 | 1003.7 |
| 20260831163534 | 63 | 180 | 2.0 | 5.0 | 0.00 | 0.59 | 0.59 | 92 | 1003.7 |
| 20260831163044 | 63 | 219 | 2.0 | 5.0 | 0.00 | 0.59 | 0.59 | 92 | 1003.7 |
| 20260831162529 | 63 | 226 | 2.0 | 4.0 | 0.00 | 0.59 | 0.59 | 92 | 1003.6 |
| 20260831162031 | 63 | 0 | 0.0 | 2.0 | 0.00 | 0.59 | 0.59 | 92 | 1003.5 |
| 20260831161549 | 64 | 230 | 0.0 | 3.0 | 0.00 | 0.59 | 0.59 | 91 | 1003.4 |
| 20260831161033 | 64 | 0 | 1.0 | 3.0 | 0.00 | 0.59 | 0.59 | 90 | 1003.4 |
| 20260831160531 | 64 | 226 | 1.0 | 4.0 | 0.00 | 0.59 | 0.59 | 90 | 1003.4 |
| 20260831160050 | 64 | 0 | 0.0 | 4.0 | 0.00 | 0.59 | 0.59 | 90 | 1003.5 |
| 20260831155531 | 65 | 220 | 1.0 | 3.0 | 0.00 | 0.59 | 0.59 | 90 | 1003.4 |
| 20260831155032 | 65 | 230 | 0.0 | 3.0 | 0.00 | 0.59 | 0.59 | 91 | 1003.4 |
| 20260831154608 | 64 | 0 | 1.0 | 3.0 | 0.00 | 0.59 | 0.59 | 90 | 1003.4 |
| 20260831154031 | 64 | 0 | 0.0 | 0.0 | 0.00 | 0.59 | 0.59 | 90 | 1003.4 |
| 20260831153535 | 64 | 0 | 0.0 | 0.0 | 0.00 | 0.59 | 0.59 | 91 | 1003.4 |
| 20260831153048 | 64 | 0 | 0.0 | 2.0 | 0.00 | 0.59 | 0.59 | 90 | 1003.4 |
| 20260831152533 | 64 | 0 | 0.0 | 2.0 | 0.00 | 0.59 | 0.59 | 89 | 1003.4 |
| 20260831152035 | 64 | 0 | 1.0 | 3.0 | 0.00 | 0.59 | 0.59 | 89 | 1003.4 |
| 20260831151555 | 64 | 0 | 0.0 | 3.0 | 0.00 | 0.59 | 0.59 | 89 | 1003.4 |
| 20260831151035 | 65 | 247 | 0.0 | 3.0 | 0.00 | 0.59 | 0.59 | 88 | 1003.4 |
| 20260831150533 | 64 | 247 | 0.0 | 3.0 | 0.00 | 0.59 | 0.59 | 91 | 1003.4 |
| 20260831150052 | 64 | 0 | 0.0 | 3.0 | 0.00 | 0.59 | 0.59 | 91 | 1003.4 |
| 20260831145535 | 64 | 247 | 1.0 | 3.0 | 0.00 | 0.59 | 0.59 | 88 | 1003.4 |
| 20260831145031 | 64 | 0 | 1.0 | 4.0 | 0.00 | 0.59 | 0.59 | 89 | 1003.4 |
| 20260831144621 | 65 | 0 | 1.0 | 4.0 | 0.00 | 0.59 | 0.59 | 88 | 1003.4 |
| 20260831144033 | 65 | 255 | 1.0 | 4.0 | 0.00 | 0.59 | 0.59 | 89 | 1003.4 |
| 20260831143536 | 64 | 243 | 1.0 | 4.0 | 0.00 | 0.59 | 0.59 | 90 | 1003.4 |
| 20260831143043 | 65 | 243 | 1.0 | 6.0 | 0.00 | 0.59 | 0.59 | 88 | 1003.4 |
| 20260831142532 | 65 | 243 | 3.0 | 6.0 | 0.00 | 0.59 | 0.59 | 88 | 1003.4 |
| 20260831142030 | 65 | 267 | 2.0 | 6.0 | 0.00 | 0.59 | 0.59 | 90 | 1003.4 |
| 20260831141554 | 64 | 238 | 2.0 | 6.0 | 0.00 | 0.59 | 0.59 | 90 | 1003.4 |
| 20260831141029 | 64 | 225 | 3.0 | 6.0 | 0.00 | 0.59 | 0.59 | 90 | 1003.5 |
| 20260831140529 | 64 | 262 | 2.0 | 5.0 | 0.00 | 0.59 | 0.59 | 92 | 1003.3 |
| 20260831140052 | 64 | 0 | 0.0 | 0.0 | 0.00 | 0.59 | 0.59 | 92 | 1003.3 |
| 20260831135530 | 63 | 0 | 0.0 | 4.0 | 0.01 | 0.59 | 0.59 | 92 | 1003.3 |
| 20260831135032 | 63 | 0 | 0.0 | 4.0 | 0.02 | 0.59 | 0.59 | 92 | 1003.2 |
| 20260831134554 | 63 | 234 | 1.0 | 4.0 | 0.02 | 0.59 | 0.59 | 92 | 1003.3 |
| 20260831134029 | 63 | 0 | 0.0 | 0.0 | 0.03 | 0.59 | 0.59 | 93 | 1003.3 |
| 20260831133529 | 63 | 0 | 0.0 | 0.0 | 0.03 | 0.59 | 0.59 | 92 | 1003.3 |
| 20260831133052 | 63 | 0 | 0.0 | 0.0 | 0.03 | 0.59 | 0.59 | 93 | 1003.2 |
| 20260831132529 | 63 | 0 | 0.0 | 0.0 | 0.03 | 0.59 | 0.59 | 93 | 1003.3 |
| 20260831132032 | 63 | 0 | 0.0 | 0.0 | 0.09 | 0.59 | 0.59 | 93 | 1003.3 |
| 20260831131550 | 63 | 0 | 0.0 | 0.0 | 0.16 | 0.59 | 0.59 | 93 | 1003.3 |
| 20260831131031 | 63 | 0 | 0.0 | 1.0 | 0.25 | 0.59 | 0.59 | 93 | 1003.3 |
| 20260831130534 | 62 | 0 | 0.0 | 1.0 | 0.26 | 0.59 | 0.59 | 93 | 1003.3 |
| 20260831130051 | 62 | 0 | 0.0 | 1.0 | 0.37 | 0.58 | 0.58 | 93 | 1003.3 |
| 20260831125532 | 62 | 0 | 0.0 | 0.0 | 0.52 | 0.57 | 0.57 | 93 | 1003.3 |
| 20260831125031 | 62 | 0 | 0.0 | 0.0 | 0.51 | 0.56 | 0.56 | 93 | 1003.3 |
| 20260831124556 | 62 | 0 | 0.0 | 0.0 | 0.51 | 0.56 | 0.56 | 94 | 1003.4 |
| 20260831124030 | 62 | 0 | 0.0 | 0.0 | 0.51 | 0.55 | 0.55 | 93 | 1003.3 |
| 20260831123530 | 61 | 0 | 0.0 | 2.0 | 0.51 | 0.55 | 0.55 | 93 | 1003.3 |
| 20260831123043 | 61 | 0 | 0.0 | 3.0 | 0.51 | 0.55 | 0.55 | 93 | 1003.3 |